createdAt,value
2022-11-18T00:01:23.919Z,88.80
2022-11-18T00:03:52.531Z,88.50
2022-11-18T00:06:25.279Z,88.40
2022-11-18T00:08:54.650Z,86.90
2022-11-18T00:11:45.331Z,86.50
2022-11-18T00:14:21.037Z,86.20
2022-11-18T00:17:05.177Z,86.50
2022-11-18T00:19:40.105Z,86.30
2022-11-18T00:22:12.735Z,86.00
2022-11-18T00:24:40.167Z,84.30
2022-11-18T00:27:07.556Z,84.50
2022-11-18T00:29:34.918Z,82.80
2022-11-18T00:32:02.222Z,81.40
2022-11-18T00:34:29.556Z,83.40
2022-11-18T00:36:56.893Z,83.30
2022-11-18T00:39:24.437Z,81.10
2022-11-18T00:42:10.483Z,84.30
2022-11-18T00:44:37.845Z,83.30
2022-11-18T00:47:06.209Z,81.90
2022-11-18T00:49:33.800Z,82.90
2022-11-18T00:52:01.795Z,82.20
2022-11-18T00:54:29.232Z,81.30
2022-11-18T00:56:56.576Z,81.90
2022-11-18T00:59:23.922Z,83.90
2022-11-18T01:01:51.372Z,82.60
2022-11-18T01:04:18.785Z,83.60
2022-11-18T01:06:46.101Z,83.30
2022-11-18T01:09:13.448Z,82.80
2022-11-18T01:11:59.160Z,82.30
2022-11-18T01:14:27.195Z,81.90
2022-11-18T01:16:57.170Z,81.60
2022-11-18T01:19:26.146Z,81.50
2022-11-18T01:21:53.576Z,82.60
2022-11-18T01:24:20.844Z,82.80
2022-11-18T01:26:49.237Z,82.80
2022-11-18T01:29:17.844Z,83.00
2022-11-18T01:32:01.804Z,83.40
2022-11-18T01:34:32.701Z,83.90
2022-11-18T01:37:00.011Z,83.10
2022-11-18T01:39:27.647Z,82.50
2022-11-18T01:41:54.978Z,84.30
2022-11-18T01:45:10.120Z,83.30
2022-11-18T01:47:55.576Z,84.20
2022-11-18T01:50:24.393Z,85.10
2022-11-18T01:52:57.746Z,81.90
2022-11-18T01:55:33.331Z,83.40
2022-11-18T01:58:17.284Z,82.40
2022-11-18T02:00:44.720Z,82.60
2022-11-18T02:03:14.116Z,81.60
2022-11-18T02:05:43.954Z,82.50
2022-11-18T02:08:11.500Z,82.60
2022-11-18T02:10:38.794Z,83.30
2022-11-18T02:13:07.738Z,83.10
2022-11-18T02:16:03.888Z,83.50
2022-11-18T02:19:10.976Z,84.30
2022-11-18T02:22:18.575Z,84.80
2022-11-18T02:25:15.596Z,85.40
2022-11-18T02:28:26.123Z,86.20
2022-11-18T02:31:41.573Z,86.20
2022-11-18T02:34:41.355Z,86.60
2022-11-18T02:37:51.318Z,87.00
2022-11-18T02:40:57.775Z,87.20
2022-11-18T02:43:58.107Z,88.50
2022-11-18T02:46:33.181Z,88.20
2022-11-18T02:49:06.626Z,88.90
2022-11-18T02:51:35.507Z,88.90
2022-11-18T02:54:11.848Z,88.60
2022-11-18T02:56:39.211Z,88.60
2022-11-18T02:59:06.516Z,89.20
2022-11-18T03:01:37.656Z,89.70
2022-11-18T03:04:05.156Z,89.40
2022-11-18T03:06:49.784Z,89.30
2022-11-18T03:09:31.891Z,89.20
2022-11-18T03:12:46.646Z,89.80
2022-11-18T03:16:01.295Z,90.30
2022-11-18T03:19:18.862Z,88.90
2022-11-18T03:22:28.333Z,90.20
2022-11-18T03:25:29.570Z,88.20
2022-11-18T03:28:12.554Z,88.90
2022-11-18T03:31:21.482Z,88.70
2022-11-18T03:34:10.861Z,89.00
2022-11-18T03:36:52.213Z,88.50
2022-11-18T03:39:22.584Z,87.40
2022-11-18T03:42:28.706Z,87.50
2022-11-18T03:45:07.018Z,88.60
2022-11-18T03:47:45.599Z,88.50
2022-11-18T03:50:26.560Z,87.70
2022-11-18T03:52:55.192Z,88.00
2022-11-18T03:55:36.722Z,87.80
2022-11-18T03:58:42.805Z,87.80
2022-11-18T04:01:23.744Z,87.60
2022-11-18T04:03:51.152Z,88.20
2022-11-18T04:06:56.251Z,87.90
2022-11-18T04:09:40.039Z,87.40
2022-11-18T04:12:15.968Z,89.00
2022-11-18T04:14:46.564Z,86.40
2022-11-18T04:17:19.809Z,87.60
2022-11-18T04:19:47.830Z,88.70
2022-11-18T04:22:16.178Z,89.50
2022-11-18T04:24:43.452Z,87.70
2022-11-18T04:27:11.274Z,87.90
2022-11-18T04:29:38.594Z,87.50
2022-11-18T04:32:06.578Z,88.00
2022-11-18T04:34:33.937Z,88.50
2022-11-18T04:37:01.359Z,88.10
2022-11-18T04:39:29.122Z,90.00
2022-11-18T04:41:56.475Z,89.10
2022-11-18T04:44:30.253Z,88.10
2022-11-18T04:47:02.306Z,88.50
2022-11-18T04:49:30.752Z,87.60
2022-11-18T04:51:59.116Z,86.70
2022-11-18T04:54:28.021Z,87.20
2022-11-18T04:56:56.657Z,87.30
2022-11-18T04:59:30.088Z,83.00
2022-11-18T05:02:00.846Z,84.30
2022-11-18T05:04:33.357Z,85.10
2022-11-18T05:07:04.525Z,85.10
2022-11-18T05:09:32.578Z,86.50
2022-11-18T05:12:19.950Z,87.40
2022-11-18T05:14:50.369Z,84.10
2022-11-18T05:17:19.196Z,84.80
2022-11-18T05:19:46.514Z,86.60
2022-11-18T05:22:15.959Z,87.00
2022-11-18T05:24:43.378Z,86.60
2022-11-18T05:27:13.046Z,86.70
2022-11-18T05:29:40.349Z,86.80
2022-11-18T05:32:07.621Z,88.60
2022-11-18T05:34:35.031Z,86.80
2022-11-18T05:37:02.350Z,88.30
2022-11-18T05:39:29.694Z,89.20
2022-11-18T05:42:15.610Z,88.70
2022-11-18T05:44:43.014Z,88.80
2022-11-18T05:47:10.647Z,89.10
2022-11-18T05:49:37.969Z,89.20
2022-11-18T05:52:05.909Z,89.00
2022-11-18T05:54:33.444Z,88.60
2022-11-18T05:57:01.022Z,88.20
2022-11-18T05:59:28.438Z,88.50
2022-11-18T06:02:05.230Z,89.10
2022-11-18T06:05:03.682Z,89.30
2022-11-18T06:07:45.372Z,89.60
2022-11-18T06:10:25.344Z,88.30
2022-11-18T06:13:00.723Z,89.60
2022-11-18T06:15:37.894Z,89.60
2022-11-18T06:18:29.853Z,88.60
2022-11-18T06:21:05.404Z,88.60
2022-11-18T06:23:40.226Z,88.70
2022-11-18T06:26:09.510Z,87.40
2022-11-18T06:28:37.854Z,88.50
2022-11-18T06:31:05.279Z,88.10
2022-11-18T06:33:32.611Z,88.70
2022-11-18T06:36:00.024Z,88.30
2022-11-18T06:38:27.327Z,88.30
2022-11-18T06:40:58.369Z,88.10
2022-11-18T06:43:43.701Z,88.30
2022-11-18T06:46:37.008Z,88.20
2022-11-18T06:49:04.474Z,88.30
2022-11-18T06:51:32.803Z,87.90
2022-11-18T06:54:07.508Z,87.40
2022-11-18T06:56:37.984Z,87.00
2022-11-18T06:59:05.878Z,86.20
2022-11-18T07:01:38.799Z,86.70
2022-11-18T07:04:06.365Z,86.80
2022-11-18T07:06:36.407Z,86.70
2022-11-18T07:09:07.168Z,86.00
2022-11-18T07:11:35.321Z,85.90
2022-11-18T07:14:02.710Z,86.50
2022-11-18T07:16:30.357Z,85.80
2022-11-18T07:18:57.939Z,86.00
2022-11-18T07:21:29.837Z,85.60
2022-11-18T07:23:57.809Z,86.70
2022-11-18T07:26:25.378Z,87.30
2022-11-18T07:28:54.010Z,83.60
2022-11-18T07:31:21.708Z,85.80
2022-11-18T07:33:50.154Z,86.10
2022-11-18T07:36:32.312Z,85.00
2022-11-18T07:39:06.273Z,85.80
2022-11-18T07:41:34.506Z,84.50
2022-11-18T07:44:04.975Z,84.10
2022-11-18T07:46:37.176Z,84.80
2022-11-18T07:49:09.239Z,84.70
2022-11-18T07:51:40.458Z,84.80
2022-11-18T07:54:17.183Z,85.10
2022-11-18T07:56:44.914Z,84.90
2022-11-18T07:59:12.213Z,84.60
2022-11-18T08:01:39.608Z,85.20
2022-11-18T08:04:12.586Z,84.60
2022-11-18T08:06:40.806Z,83.20
2022-11-18T08:09:09.122Z,83.70
2022-11-18T08:11:37.066Z,84.20
2022-11-18T08:14:04.646Z,84.20
2022-11-18T08:16:32.022Z,84.60
2022-11-18T08:19:00.837Z,84.20
2022-11-18T08:21:28.613Z,84.30
2022-11-18T08:23:58.758Z,84.10
2022-11-18T08:26:27.821Z,83.60
2022-11-18T08:28:55.308Z,83.60
2022-11-18T08:31:30.572Z,83.60
2022-11-18T08:34:07.602Z,82.90
2022-11-18T08:36:38.397Z,84.60
2022-11-18T08:39:09.096Z,83.90
2022-11-18T08:41:44.085Z,84.50
2022-11-18T08:44:16.356Z,82.20
2022-11-18T08:46:46.871Z,82.50
2022-11-18T08:49:14.728Z,83.30
2022-11-18T08:51:42.133Z,83.20
2022-11-18T08:54:11.949Z,83.50
2022-11-18T08:56:40.197Z,83.10
2022-11-18T08:59:08.925Z,83.30
2022-11-18T09:01:42.034Z,83.00
2022-11-18T09:04:10.705Z,82.20
2022-11-18T09:06:40.197Z,82.50
2022-11-18T09:09:08.781Z,81.80
2022-11-18T09:11:39.446Z,80.30
2022-11-18T09:16:54.175Z,81.60
2022-11-18T09:22:09.824Z,81.60
2022-11-18T09:24:38.172Z,80.90
2022-11-18T09:27:12.174Z,79.90
2022-11-18T09:29:42.652Z,81.30
2022-11-18T09:32:10.038Z,80.70
2022-11-18T09:34:37.441Z,80.50
2022-11-18T09:37:07.365Z,82.00
2022-11-18T09:39:36.995Z,80.90
2022-11-18T09:43:10.937Z,80.60
2022-11-18T09:45:48.508Z,81.80
2022-11-18T09:48:46.140Z,82.90
2022-11-18T09:51:13.935Z,83.20
2022-11-18T09:53:45.877Z,82.70
2022-11-18T09:56:17.262Z,83.20
2022-11-18T09:58:45.886Z,84.40
2022-11-18T10:01:20.119Z,84.30
2022-11-18T10:03:48.018Z,84.20
2022-11-18T10:06:34.175Z,85.60
2022-11-18T10:09:41.176Z,84.90
2022-11-18T10:12:45.919Z,84.70
2022-11-18T10:15:43.665Z,83.50
2022-11-18T10:19:26.803Z,82.60
2022-11-18T10:22:55.788Z,82.70
2022-11-18T10:25:23.781Z,81.80
2022-11-18T10:27:53.100Z,80.90
2022-11-18T10:30:27.695Z,81.20
2022-11-18T10:33:26.546Z,80.00
2022-11-18T10:36:16.638Z,80.10
2022-11-18T10:38:49.720Z,78.60
2022-11-18T10:41:20.808Z,77.90
2022-11-18T10:43:49.019Z,77.50
2022-11-18T10:46:39.192Z,77.50
2022-11-18T10:49:09.427Z,78.30
2022-11-18T10:51:45.459Z,76.90
2022-11-18T10:54:23.798Z,77.10
2022-11-18T10:57:08.143Z,76.50
2022-11-18T10:59:57.629Z,76.40
2022-11-18T11:02:34.687Z,76.00
2022-11-18T11:05:22.467Z,76.80
2022-11-18T11:08:35.881Z,76.80
2022-11-18T11:11:04.487Z,76.50
2022-11-18T11:13:35.775Z,75.80
2022-11-18T11:16:06.606Z,75.90
2022-11-18T11:18:44.351Z,75.50
2022-11-18T11:21:22.960Z,75.10
2022-11-18T11:23:50.367Z,75.00
2022-11-18T11:30:25.301Z,74.50
2022-11-18T11:34:01.957Z,75.60
2022-11-18T11:37:45.579Z,75.00
2022-11-18T11:40:57.600Z,74.90
2022-11-18T11:44:39.709Z,74.80
2022-11-18T11:48:19.446Z,75.00
2022-11-18T11:51:15.112Z,71.00
2022-11-18T11:54:47.791Z,71.00
2022-11-18T11:57:53.738Z,71.60
2022-11-18T12:00:21.267Z,72.20
2022-11-18T12:03:52.011Z,72.70
2022-11-18T12:06:19.977Z,73.10
2022-11-18T12:09:39.311Z,73.20
2022-11-18T12:12:35.671Z,73.00
2022-11-18T12:16:24.576Z,71.80
2022-11-18T12:19:19.573Z,70.50
2022-11-18T12:21:47.661Z,67.20
2022-11-18T12:24:24.781Z,66.40
2022-11-18T12:26:53.045Z,66.00
2022-11-18T12:29:20.478Z,66.10
2022-11-18T12:31:58.083Z,66.80
2022-11-18T12:34:44.757Z,67.10
2022-11-18T12:37:24.064Z,67.50
2022-11-18T12:39:58.923Z,67.40
2022-11-18T12:43:05.902Z,67.20
2022-11-18T12:45:42.511Z,66.30
2022-11-18T12:48:42.543Z,66.80
2022-11-18T12:51:15.820Z,66.90
2022-11-18T12:53:50.211Z,66.60
2022-11-18T12:56:36.943Z,67.30
2022-11-18T12:59:05.412Z,67.30
2022-11-18T13:01:36.914Z,66.40
2022-11-18T13:04:22.272Z,67.10
2022-11-18T13:06:51.141Z,67.30
2022-11-18T13:09:26.057Z,68.00
2022-11-18T13:12:14.197Z,68.50
2022-11-18T13:15:07.027Z,66.50
2022-11-18T13:17:52.027Z,66.00
2022-11-18T13:20:37.701Z,66.10
2022-11-18T13:23:28.105Z,65.80
2022-11-18T13:26:31.679Z,65.90
2022-11-18T13:30:06.222Z,65.40
2022-11-18T13:32:33.682Z,66.10
2022-11-18T13:35:19.955Z,65.80
2022-11-18T13:38:01.857Z,66.70
2022-11-18T13:41:04.496Z,67.40
2022-11-18T13:43:33.290Z,67.70
2022-11-18T13:46:16.497Z,67.60
2022-11-18T13:48:58.050Z,67.30
2022-11-18T13:51:26.734Z,66.80
2022-11-18T13:53:54.255Z,67.30
2022-11-18T13:56:34.940Z,68.00
2022-11-18T13:59:20.609Z,68.20
2022-11-18T14:02:00.048Z,68.30
2022-11-18T14:04:31.558Z,67.40
2022-11-18T14:07:33.713Z,68.60
2022-11-18T14:10:15.446Z,68.40
2022-11-18T14:12:42.851Z,67.40
2022-11-18T14:15:43.260Z,67.30
2022-11-18T14:18:46.460Z,67.00
2022-11-18T14:21:14.175Z,66.60
2022-11-18T14:23:44.375Z,66.20
2022-11-18T14:26:12.934Z,66.00
2022-11-18T14:28:40.335Z,67.60
2022-11-18T14:31:30.874Z,65.80
2022-11-18T14:34:27.007Z,66.00
2022-11-18T14:36:56.780Z,65.50
2022-11-18T14:39:32.182Z,65.40
2022-11-18T14:42:00.286Z,65.40
2022-11-18T14:44:28.730Z,65.20
2022-11-18T14:47:06.399Z,65.40
2022-11-18T14:49:34.040Z,65.60
2022-11-18T14:52:02.782Z,65.70
2022-11-18T14:54:30.810Z,66.10
2022-11-18T14:57:04.058Z,66.70
2022-11-18T14:59:32.364Z,66.40
2022-11-18T15:02:01.010Z,67.70
2022-11-18T15:04:28.455Z,65.60
2022-11-18T15:06:56.538Z,65.00
2022-11-18T15:09:23.851Z,65.30
2022-11-18T15:11:51.348Z,65.10
2022-11-18T15:14:18.816Z,66.00
2022-11-18T15:16:46.330Z,66.40
2022-11-18T15:19:16.551Z,66.00
2022-11-18T15:21:45.553Z,65.80
2022-11-18T15:24:13.527Z,66.00
2022-11-18T15:26:46.323Z,66.10
2022-11-18T15:29:24.754Z,66.30
2022-11-18T15:31:52.455Z,66.30
2022-11-18T15:34:21.577Z,67.00
2022-11-18T15:36:49.816Z,67.20
2022-11-18T15:39:17.168Z,67.30
2022-11-18T15:41:44.734Z,67.40
2022-11-18T15:44:12.609Z,67.20
2022-11-18T15:46:40.558Z,67.10
2022-11-18T15:49:13.814Z,67.20
2022-11-18T15:51:42.391Z,67.00
2022-11-18T15:54:09.919Z,67.00
2022-11-18T15:56:38.382Z,67.30
2022-11-18T15:59:11.801Z,67.60
2022-11-18T16:01:49.505Z,67.00
2022-11-18T16:04:19.386Z,67.30
2022-11-18T16:06:47.719Z,67.20
2022-11-18T16:09:17.368Z,67.60
2022-11-18T16:12:03.915Z,67.50
2022-11-18T16:14:31.267Z,67.80
2022-11-18T16:16:58.585Z,68.50
2022-11-18T16:19:27.229Z,67.80
2022-11-18T16:21:57.286Z,67.50
2022-11-18T16:24:29.227Z,67.70
2022-11-18T16:26:57.299Z,67.50
2022-11-18T16:29:25.348Z,67.60
2022-11-18T16:31:54.439Z,68.10
2022-11-18T16:34:28.253Z,68.00
2022-11-18T16:37:02.163Z,69.40
2022-11-18T16:39:29.984Z,67.30
2022-11-18T16:42:08.055Z,67.30
2022-11-18T16:44:37.744Z,67.80
2022-11-18T16:47:13.742Z,67.50
2022-11-18T16:49:42.233Z,67.60
2022-11-18T16:52:09.604Z,67.50
2022-11-18T16:54:44.265Z,67.20
2022-11-18T16:57:12.213Z,68.10
2022-11-18T16:59:39.469Z,67.20
2022-11-18T17:02:07.329Z,67.00
2022-11-18T17:04:37.162Z,68.10
2022-11-18T17:07:05.436Z,68.30
2022-11-18T17:09:33.154Z,68.10
2022-11-18T17:12:00.484Z,68.90
2022-11-18T17:14:28.911Z,68.80
2022-11-18T17:16:56.679Z,69.50
2022-11-18T17:19:24.869Z,69.40
2022-11-18T17:21:52.972Z,70.00
2022-11-18T17:24:23.904Z,70.40
2022-11-18T17:26:52.514Z,70.40
2022-11-18T17:29:20.996Z,69.70
2022-11-18T17:31:48.966Z,69.60
2022-11-18T17:34:17.016Z,69.60
2022-11-18T17:36:44.568Z,69.10
2022-11-18T17:39:13.395Z,69.20
2022-11-18T17:41:59.331Z,69.20
2022-11-18T17:44:29.189Z,68.40
2022-11-18T17:46:56.848Z,68.20
2022-11-18T17:49:24.768Z,68.30
2022-11-18T17:51:52.349Z,68.70
2022-11-18T17:54:21.013Z,68.20
2022-11-18T17:56:49.945Z,68.70
2022-11-18T17:59:18.419Z,68.80
2022-11-18T18:01:46.421Z,69.50
2022-11-18T18:04:15.382Z,68.60
2022-11-18T18:06:42.827Z,69.80
2022-11-18T18:09:10.244Z,69.50
2022-11-18T18:11:37.501Z,68.80
2022-11-18T18:14:22.451Z,68.50
2022-11-18T18:16:51.229Z,68.00
2022-11-18T18:19:22.586Z,69.10
2022-11-18T18:21:50.615Z,68.70
2022-11-18T18:24:20.344Z,68.50
2022-11-18T18:26:51.702Z,68.80
2022-11-18T18:29:19.037Z,68.70
2022-11-18T18:31:46.332Z,68.40
2022-11-18T18:34:13.643Z,67.90
2022-11-18T18:36:40.899Z,67.80
2022-11-18T18:39:08.155Z,68.70
2022-11-18T18:41:35.639Z,68.20
2022-11-18T18:44:02.918Z,68.10
2022-11-18T18:46:33.383Z,68.60
2022-11-18T18:49:20.618Z,68.00
2022-11-18T18:51:51.265Z,68.10
2022-11-18T18:54:20.817Z,68.10
2022-11-18T18:56:49.401Z,68.80
2022-11-18T18:59:16.671Z,69.50
2022-11-18T19:01:44.059Z,69.10
2022-11-18T19:04:13.650Z,69.30
2022-11-18T19:07:01.145Z,70.00
2022-11-18T19:09:28.879Z,70.60
2022-11-18T19:12:14.953Z,69.60
2022-11-18T19:14:42.319Z,71.10
2022-11-18T19:17:11.594Z,71.40
2022-11-18T19:20:00.830Z,71.80
2022-11-18T19:22:33.354Z,71.90
2022-11-18T19:27:48.451Z,71.10
2022-11-18T19:30:16.988Z,71.60
2022-11-18T19:32:44.283Z,71.40
2022-11-18T19:35:11.789Z,71.00
2022-11-18T19:37:39.130Z,70.60
2022-11-18T19:40:10.542Z,71.60
2022-11-18T19:42:39.392Z,71.80
2022-11-18T19:45:09.555Z,71.50
2022-11-18T19:47:37.822Z,71.30
2022-11-18T19:50:08.042Z,71.10
2022-11-18T19:52:35.331Z,71.10
2022-11-18T19:55:02.657Z,71.50
2022-11-18T19:57:31.191Z,72.00
2022-11-18T19:59:58.495Z,72.00
2022-11-18T20:02:25.793Z,71.90
2022-11-18T20:05:11.712Z,72.30
2022-11-18T20:07:39.058Z,72.50
2022-11-18T20:10:09.243Z,72.70
2022-11-18T20:12:37.277Z,73.30
2022-11-18T20:15:05.449Z,74.00
2022-11-18T20:17:32.811Z,74.80
2022-11-18T20:20:00.104Z,75.20
2022-11-18T20:22:27.408Z,75.60
2022-11-18T20:24:54.698Z,76.00
2022-11-18T20:27:21.983Z,76.70
2022-11-18T20:29:49.248Z,78.40
2022-11-18T20:32:18.306Z,78.70
2022-11-18T20:34:47.070Z,79.70
2022-11-18T20:37:15.030Z,79.60
2022-11-18T20:39:42.325Z,80.70
2022-11-18T20:42:27.938Z,79.70
2022-11-18T20:44:55.246Z,80.90
2022-11-18T20:47:22.524Z,81.40
2022-11-18T20:49:49.811Z,82.20
2022-11-18T20:52:17.084Z,82.10
2022-11-18T20:54:45.666Z,81.70
2022-11-18T20:57:12.959Z,81.50
2022-11-18T20:59:40.210Z,81.90
2022-11-18T21:02:08.668Z,81.60
2022-11-18T21:04:35.970Z,80.10
2022-11-18T21:07:03.302Z,80.10
2022-11-18T21:09:32.825Z,80.20
2022-11-18T21:12:00.810Z,80.20
2022-11-18T21:14:28.309Z,80.00
2022-11-18T21:17:01.891Z,79.70
2022-11-18T21:19:32.841Z,80.00
2022-11-18T21:22:00.350Z,80.40
2022-11-18T21:24:31.954Z,80.30
2022-11-18T21:27:01.846Z,80.70
2022-11-18T21:29:32.513Z,80.50
2022-11-18T21:32:01.453Z,80.50
2022-11-18T21:34:30.233Z,79.60
2022-11-18T21:36:58.196Z,79.80
2022-11-18T21:39:25.930Z,79.80
2022-11-18T21:41:56.586Z,79.60
2022-11-18T21:44:28.061Z,79.50
2022-11-18T21:46:56.403Z,79.60
2022-11-18T21:49:23.958Z,79.10
2022-11-18T21:51:51.341Z,79.00
2022-11-18T21:54:18.716Z,78.90
2022-11-18T21:56:46.047Z,78.80
2022-11-18T21:59:13.549Z,78.80
2022-11-18T22:01:40.816Z,78.40
2022-11-18T22:04:08.175Z,78.80
2022-11-18T22:06:36.428Z,78.70
2022-11-18T22:09:06.047Z,78.20
2022-11-18T22:11:33.438Z,78.90
2022-11-18T22:14:01.933Z,78.60
2022-11-18T22:16:29.326Z,78.00
2022-11-18T22:19:01.424Z,78.40
2022-11-18T22:21:31.155Z,78.40
2022-11-18T22:24:00.875Z,78.30
2022-11-18T22:26:29.463Z,78.00
2022-11-18T22:28:58.493Z,78.60
2022-11-18T22:31:28.499Z,77.10
2022-11-18T22:33:57.050Z,77.60
2022-11-18T22:36:27.513Z,78.70
2022-11-18T22:38:55.424Z,77.30
2022-11-18T22:41:48.135Z,77.60
2022-11-18T22:44:17.844Z,77.40
2022-11-18T22:46:46.607Z,77.20
2022-11-18T22:49:14.183Z,77.50
2022-11-18T22:51:41.510Z,78.90
2022-11-18T22:54:37.600Z,78.30
2022-11-18T22:56:57.402Z,78.60
2022-11-18T22:59:25.026Z,79.30
2022-11-18T23:01:52.908Z,78.90
2022-11-18T23:04:20.441Z,78.70
2022-11-18T23:06:49.628Z,79.80
2022-11-18T23:09:17.757Z,78.80
2022-11-18T23:12:04.163Z,78.70
2022-11-18T23:14:31.698Z,78.20
2022-11-18T23:16:59.594Z,78.80
2022-11-18T23:19:26.880Z,79.10
2022-11-18T23:21:54.145Z,78.50
2022-11-18T23:24:21.489Z,78.50
2022-11-18T23:26:48.801Z,79.20
2022-11-18T23:29:17.093Z,78.30
2022-11-18T23:31:45.532Z,78.30
2022-11-18T23:34:16.475Z,77.80
2022-11-18T23:36:44.063Z,77.90
2022-11-18T23:39:11.818Z,78.90
2022-11-18T23:41:40.189Z,80.20
2022-11-18T23:44:07.583Z,80.70
2022-11-18T23:46:35.287Z,81.90
2022-11-18T23:49:05.093Z,81.60
2022-11-18T23:51:32.367Z,81.10
2022-11-18T23:53:59.670Z,81.90
2022-11-18T23:56:28.056Z,82.00
2022-11-18T23:58:56.965Z,81.50
